createdAt,value
2019-05-06T00:01:05.722Z,22.95
2019-05-06T00:03:35.643Z,21.60
2019-05-06T00:06:05.659Z,21.62
2019-05-06T00:08:35.687Z,20.88
2019-05-06T00:11:05.709Z,22.25
2019-05-06T00:13:35.652Z,22.40
2019-05-06T00:16:05.666Z,23.22
2019-05-06T00:18:35.619Z,22.50
2019-05-06T00:21:05.492Z,23.18
2019-05-06T00:23:38.191Z,23.38
2019-05-06T00:26:11.138Z,24.47
2019-05-06T00:28:44.655Z,22.60
2019-05-06T00:31:16.703Z,23.22
2019-05-06T00:33:46.498Z,22.55
2019-05-06T00:36:16.286Z,23.02
2019-05-06T00:38:47.607Z,22.42
2019-05-06T00:41:19.079Z,21.73
2019-05-06T00:43:48.792Z,23.60
2019-05-06T00:46:18.530Z,26.40
2019-05-06T00:48:48.245Z,23.30
2019-05-06T00:51:18.064Z,24.00
2019-05-06T00:53:49.630Z,24.23
2019-05-06T00:56:19.380Z,24.80
2019-05-06T00:58:49.126Z,25.40
2019-05-06T01:01:28.057Z,24.75
2019-05-06T01:03:50.368Z,23.22
2019-05-06T01:06:20.151Z,22.67
2019-05-06T01:08:50.043Z,24.20
2019-05-06T01:11:20.003Z,23.15
2019-05-06T01:13:51.252Z,23.85
2019-05-06T01:16:21.883Z,23.77
2019-05-06T01:18:54.023Z,22.93
2019-05-06T01:21:23.912Z,22.52
2019-05-06T01:23:54.518Z,23.38
2019-05-06T01:26:24.538Z,22.48
2019-05-06T01:28:54.895Z,22.55
2019-05-06T01:31:38.874Z,23.15
2019-05-06T01:33:56.354Z,22.80
2019-05-06T01:36:26.248Z,22.17
2019-05-06T01:38:59.074Z,21.87
2019-05-06T01:41:30.430Z,22.27
2019-05-06T01:44:00.306Z,21.37
2019-05-06T01:46:30.167Z,20.10
2019-05-06T01:48:59.874Z,21.35
2019-05-06T01:51:29.694Z,20.45
2019-05-06T01:53:59.463Z,21.65
2019-05-06T01:56:29.138Z,20.17
2019-05-06T01:58:58.959Z,20.25
2019-05-06T02:01:28.862Z,20.97
2019-05-06T02:03:58.643Z,19.57
2019-05-06T02:06:28.539Z,19.25
2019-05-06T02:08:58.135Z,18.45
2019-05-06T02:11:28.013Z,17.70
2019-05-06T02:13:57.840Z,18.17
2019-05-06T02:16:28.644Z,17.17
2019-05-06T02:18:58.450Z,18.05
2019-05-06T02:21:30.309Z,18.00
2019-05-06T02:24:01.672Z,18.25
2019-05-06T02:26:31.488Z,19.27
2019-05-06T02:29:04.265Z,21.55
2019-05-06T02:31:35.618Z,21.02
2019-05-06T02:34:06.896Z,19.47
2019-05-06T02:36:38.316Z,19.00
2019-05-06T02:39:08.223Z,19.30
2019-05-06T02:41:38.068Z,19.17
2019-05-06T02:44:10.277Z,19.07
2019-05-06T02:46:43.874Z,18.43
2019-05-06T02:49:14.349Z,16.93
2019-05-06T02:51:45.232Z,18.98
2019-05-06T02:54:15.167Z,19.42
2019-05-06T02:56:44.980Z,18.30
2019-05-06T02:59:14.865Z,19.55
2019-05-06T03:01:44.705Z,17.90
2019-05-06T03:04:14.384Z,18.98
2019-05-06T03:06:44.840Z,19.62
2019-05-06T03:09:14.768Z,19.10
2019-05-06T03:11:44.678Z,18.23
2019-05-06T03:14:14.582Z,18.92
2019-05-06T03:16:44.498Z,18.87
2019-05-06T03:19:14.376Z,16.30
2019-05-06T03:21:45.735Z,16.82
2019-05-06T03:24:17.559Z,17.90
2019-05-06T03:26:49.057Z,17.48
2019-05-06T03:29:18.951Z,17.77
2019-05-06T03:31:48.731Z,19.40
2019-05-06T03:34:38.416Z,18.35
2019-05-06T03:36:55.471Z,18.85
2019-05-06T03:39:23.245Z,17.67
2019-05-06T03:41:53.818Z,17.60
2019-05-06T03:44:24.146Z,18.07
2019-05-06T03:46:55.436Z,15.40
2019-05-06T03:49:26.908Z,15.95
2019-05-06T03:51:56.655Z,16.87
2019-05-06T03:54:26.533Z,16.35
2019-05-06T03:56:57.254Z,16.17
2019-05-06T03:59:29.580Z,16.17
2019-05-06T04:01:59.256Z,15.60
2019-05-06T04:04:29.097Z,15.00
2019-05-06T04:06:58.970Z,13.75
2019-05-06T04:09:28.772Z,13.70
2019-05-06T04:11:59.294Z,13.13
2019-05-06T04:14:32.965Z,12.90
2019-05-06T04:17:04.085Z,12.95
2019-05-06T04:19:35.531Z,13.45
2019-05-06T04:22:06.892Z,11.20
2019-05-06T04:24:38.518Z,12.60
2019-05-06T04:27:22.903Z,10.82
2019-05-06T04:29:54.353Z,10.88
2019-05-06T04:32:24.605Z,11.30
2019-05-06T04:34:54.811Z,10.78
2019-05-06T04:37:24.723Z,9.85
2019-05-06T04:39:54.561Z,10.00
2019-05-06T04:42:26.915Z,9.35
2019-05-06T04:44:55.858Z,9.38
2019-05-06T04:47:25.993Z,8.60
2019-05-06T04:49:55.881Z,9.25
2019-05-06T04:52:26.284Z,9.35
2019-05-06T04:54:57.344Z,8.50
2019-05-06T04:57:27.186Z,8.20
2019-05-06T04:59:57.224Z,8.73
2019-05-06T05:02:28.751Z,7.53
2019-05-06T05:05:03.679Z,7.40
2019-05-06T05:07:33.463Z,6.55
2019-05-06T05:10:04.788Z,6.65
2019-05-06T05:12:39.356Z,6.50
2019-05-06T05:15:11.856Z,6.50
2019-05-06T05:17:43.641Z,7.00
2019-05-06T05:20:13.706Z,7.62
2019-05-06T05:22:43.591Z,7.15
2019-05-06T05:25:13.571Z,7.00
2019-05-06T05:27:43.498Z,7.87
2019-05-06T05:30:13.592Z,7.20
2019-05-06T05:32:43.260Z,7.25
2019-05-06T05:35:13.221Z,7.80
2019-05-06T05:37:42.983Z,7.62
2019-05-06T05:40:13.123Z,7.80
2019-05-06T05:42:44.765Z,7.40
2019-05-06T05:45:15.448Z,7.35
2019-05-06T05:47:45.788Z,7.72
2019-05-06T05:50:17.365Z,8.55
2019-05-06T05:52:47.301Z,7.87
2019-05-06T05:55:17.100Z,7.70
2019-05-06T05:57:47.003Z,7.25
2019-05-06T06:00:17.976Z,7.10
2019-05-06T06:02:47.979Z,7.58
2019-05-06T06:05:17.854Z,6.30
2019-05-06T06:07:48.341Z,5.65
2019-05-06T06:10:22.461Z,9.05
2019-05-06T06:12:53.905Z,6.75
2019-05-06T06:15:25.380Z,5.37
2019-05-06T06:17:57.220Z,5.35
2019-05-06T06:20:29.274Z,5.47
2019-05-06T06:23:02.840Z,4.28
2019-05-06T06:25:33.409Z,3.95
2019-05-06T06:28:03.660Z,3.70
2019-05-06T06:30:35.057Z,3.67
2019-05-06T06:33:05.145Z,4.47
2019-05-06T06:35:36.752Z,3.60
2019-05-06T06:38:08.271Z,3.72
2019-05-06T06:40:38.336Z,3.70
2019-05-06T06:43:09.810Z,3.90
2019-05-06T06:45:42.031Z,3.50
2019-05-06T06:48:12.379Z,2.92
2019-05-06T06:50:42.698Z,3.00
2019-05-06T06:53:12.676Z,2.62
2019-05-06T06:55:43.954Z,3.50
2019-05-06T06:58:17.316Z,3.00
2019-05-06T07:00:49.470Z,2.47
2019-05-06T07:05:53.539Z,2.70
2019-05-06T07:08:34.115Z,2.40
2019-05-06T07:10:56.620Z,2.90
2019-05-06T07:13:28.044Z,3.15
2019-05-06T07:15:58.139Z,2.83
2019-05-06T07:18:28.174Z,3.40
2019-05-06T07:21:03.277Z,3.20
2019-05-06T07:23:32.818Z,3.33
2019-05-06T07:26:04.744Z,3.40
2019-05-06T07:28:34.665Z,3.35
2019-05-06T07:31:17.252Z,3.55
2019-05-06T07:33:36.201Z,2.90
2019-05-06T07:36:06.998Z,3.27
2019-05-06T07:38:38.435Z,2.52
2019-05-06T07:41:09.925Z,3.02
2019-05-06T07:43:42.093Z,3.42
2019-05-06T07:46:13.556Z,3.25
2019-05-06T07:48:43.535Z,3.17
2019-05-06T07:51:13.402Z,2.77
2019-05-06T07:53:43.244Z,2.98
2019-05-06T07:56:13.402Z,3.10
2019-05-06T07:58:43.578Z,3.27
2019-05-06T08:01:13.923Z,2.75
2019-05-06T08:03:45.288Z,3.12
2019-05-06T08:06:14.987Z,2.58
2019-05-06T08:08:45.151Z,3.10
2019-05-06T08:11:14.888Z,2.80
2019-05-06T08:13:44.810Z,2.98
2019-05-06T08:16:14.708Z,2.85
2019-05-06T08:18:44.465Z,2.70
2019-05-06T08:21:16.023Z,2.45
2019-05-06T08:23:47.513Z,2.42
2019-05-06T08:26:17.947Z,2.60
2019-05-06T08:28:48.258Z,2.40
2019-05-06T08:31:19.505Z,1.98
2019-05-06T08:33:49.448Z,2.30
2019-05-06T08:36:22.581Z,2.65
2019-05-06T08:38:54.140Z,8.18
2019-05-06T08:41:24.273Z,3.02
2019-05-06T08:43:54.335Z,2.52
2019-05-06T08:46:24.389Z,2.67
2019-05-06T08:48:54.237Z,2.40
2019-05-06T08:51:25.735Z,1.92
2019-05-06T08:53:57.101Z,2.27
2019-05-06T08:56:26.737Z,2.10
2019-05-06T08:58:56.601Z,2.55
2019-05-06T09:01:28.125Z,2.62
2019-05-06T09:04:08.764Z,1.82
2019-05-06T09:06:31.576Z,2.00
2019-05-06T09:09:02.383Z,2.65
2019-05-06T09:11:33.930Z,3.17
2019-05-06T09:14:03.844Z,2.08
2019-05-06T09:16:34.079Z,2.05
2019-05-06T09:19:04.639Z,2.30
2019-05-06T09:21:34.613Z,2.00
2019-05-06T09:24:04.491Z,2.30
2019-05-06T09:26:36.001Z,2.00
2019-05-06T09:29:07.360Z,1.92
2019-05-06T09:31:38.626Z,2.40
2019-05-06T09:34:09.912Z,2.62
2019-05-06T09:36:46.948Z,1.98
2019-05-06T09:39:13.005Z,1.90
2019-05-06T09:41:46.483Z,2.35
2019-05-06T09:44:14.457Z,2.00
2019-05-06T09:46:44.210Z,2.25
2019-05-06T09:49:15.740Z,2.70
2019-05-06T09:51:45.644Z,2.65
2019-05-06T09:54:17.299Z,2.62
2019-05-06T09:56:48.783Z,2.35
2019-05-06T09:59:18.744Z,2.85
2019-05-06T10:01:48.803Z,2.60
2019-05-06T10:04:18.726Z,2.72
2019-05-06T10:06:56.182Z,2.60
2019-05-06T10:09:20.117Z,2.40
2019-05-06T10:11:50.097Z,2.50
2019-05-06T10:14:20.074Z,2.87
2019-05-06T10:16:52.209Z,2.58
2019-05-06T10:19:22.623Z,2.47
2019-05-06T10:21:53.531Z,2.30
2019-05-06T10:24:23.448Z,2.50
2019-05-06T10:26:55.005Z,2.45
2019-05-06T10:29:26.455Z,2.72
2019-05-06T10:31:57.933Z,2.72
2019-05-06T10:34:27.817Z,2.45
2019-05-06T10:39:40.690Z,2.50
2019-05-06T10:42:13.618Z,2.30
2019-05-06T10:44:46.836Z,2.30
2019-05-06T10:47:16.554Z,2.40
2019-05-06T10:49:46.357Z,2.45
2019-05-06T10:52:17.862Z,2.70
2019-05-06T10:54:47.623Z,2.62
2019-05-06T10:57:19.100Z,2.60
2019-05-06T10:59:48.922Z,2.35
2019-05-06T11:05:07.501Z,2.80
2019-05-06T11:07:38.267Z,2.90
2019-05-06T11:10:20.537Z,2.47
2019-05-06T11:12:39.880Z,2.77
2019-05-06T11:15:12.192Z,2.42
2019-05-06T11:17:43.427Z,2.62
2019-05-06T11:20:13.937Z,2.27
2019-05-06T11:22:44.058Z,2.67
2019-05-06T11:25:14.527Z,2.35
2019-05-06T11:27:45.357Z,2.50
2019-05-06T11:30:17.504Z,2.55
2019-05-06T11:32:48.908Z,2.30
2019-05-06T11:35:22.819Z,2.80
2019-05-06T11:37:54.482Z,2.70
2019-05-06T11:40:24.431Z,3.25
2019-05-06T11:42:54.115Z,3.52
2019-05-06T11:45:24.004Z,2.87
2019-05-06T11:47:55.987Z,3.25
2019-05-06T11:50:26.013Z,3.05
2019-05-06T11:52:57.102Z,3.02
2019-05-06T11:55:31.641Z,2.75
2019-05-06T11:57:58.447Z,3.02
2019-05-06T12:00:33.233Z,2.98
2019-05-06T12:03:02.394Z,3.33
2019-05-06T12:05:32.990Z,3.58
2019-05-06T12:08:08.040Z,3.37
2019-05-06T12:10:34.571Z,3.60
2019-05-06T12:13:04.340Z,2.90
2019-05-06T12:15:34.225Z,3.40
2019-05-06T12:18:04.192Z,3.62
2019-05-06T12:20:34.103Z,4.83
2019-05-06T12:23:04.646Z,3.70
2019-05-06T12:25:34.575Z,3.30
2019-05-06T12:28:04.473Z,2.95
2019-05-06T12:30:34.357Z,3.08
2019-05-06T12:33:06.178Z,2.90
2019-05-06T12:35:37.571Z,2.90
2019-05-06T12:38:23.913Z,3.20
2019-05-06T12:40:42.724Z,2.77
2019-05-06T12:43:13.457Z,3.08
2019-05-06T12:45:45.029Z,2.80
2019-05-06T12:48:16.340Z,3.12
2019-05-06T12:50:46.119Z,2.92
2019-05-06T12:53:15.900Z,3.33
2019-05-06T12:55:45.813Z,2.75
2019-05-06T12:58:20.022Z,2.72
2019-05-06T13:00:47.295Z,2.80
2019-05-06T13:03:17.101Z,2.87
2019-05-06T13:05:46.915Z,2.98
2019-05-06T13:08:20.399Z,2.60
2019-05-06T13:10:48.155Z,3.27
2019-05-06T13:13:18.031Z,2.67
2019-05-06T13:15:47.804Z,3.08
2019-05-06T13:18:17.816Z,2.77
2019-05-06T13:20:50.995Z,2.40
2019-05-06T13:23:25.280Z,2.45
2019-05-06T13:25:52.767Z,2.20
2019-05-06T13:28:24.340Z,2.52
2019-05-06T13:30:54.296Z,2.55
2019-05-06T13:33:25.711Z,2.80
2019-05-06T13:35:55.577Z,2.33
2019-05-06T13:38:25.480Z,2.17
2019-05-06T13:40:57.661Z,2.37
2019-05-06T13:43:28.702Z,2.17
2019-05-06T13:45:59.941Z,2.37
2019-05-06T13:48:32.795Z,2.22
2019-05-06T13:51:04.264Z,2.40
2019-05-06T13:53:39.707Z,2.37
2019-05-06T13:56:05.797Z,1.98
2019-05-06T13:58:35.663Z,2.65
2019-05-06T14:01:07.147Z,2.10
2019-05-06T14:03:36.963Z,1.80
2019-05-06T14:06:06.804Z,2.10
2019-05-06T14:08:36.513Z,2.15
2019-05-06T14:11:06.349Z,1.90
2019-05-06T14:13:36.257Z,1.98
2019-05-06T14:16:06.237Z,2.00
2019-05-06T14:18:37.734Z,1.90
2019-05-06T14:21:08.893Z,2.08
2019-05-06T14:23:38.740Z,2.27
2019-05-06T14:26:12.439Z,2.20
2019-05-06T14:28:43.180Z,2.87
2019-05-06T14:31:14.529Z,1.87
2019-05-06T14:33:44.365Z,1.98
2019-05-06T14:36:14.172Z,1.70
2019-05-06T14:38:43.976Z,1.70
2019-05-06T14:41:15.371Z,1.80
2019-05-06T14:43:45.303Z,1.70
2019-05-06T14:46:15.173Z,1.95
2019-05-06T14:48:45.095Z,1.80
2019-05-06T14:51:14.979Z,2.00
2019-05-06T14:53:44.899Z,1.82
2019-05-06T14:56:17.336Z,1.67
2019-05-06T14:58:48.742Z,1.65
2019-05-06T15:01:18.547Z,1.90
2019-05-06T15:03:48.288Z,2.10
2019-05-06T15:06:18.053Z,1.72
2019-05-06T15:08:47.804Z,2.12
2019-05-06T15:11:17.705Z,1.72
2019-05-06T15:13:47.583Z,1.60
2019-05-06T15:16:17.421Z,4.15
2019-05-06T15:18:47.255Z,2.45
2019-05-06T15:21:33.320Z,2.72
2019-05-06T15:23:48.339Z,3.40
2019-05-06T15:26:18.328Z,2.22
2019-05-06T15:28:48.126Z,1.90
2019-05-06T15:31:19.472Z,1.70
2019-05-06T15:33:52.751Z,1.90
2019-05-06T15:36:23.803Z,2.35
2019-05-06T15:38:53.644Z,2.10
2019-05-06T15:41:24.604Z,1.95
2019-05-06T15:43:54.371Z,1.57
2019-05-06T15:46:24.308Z,1.47
2019-05-06T15:48:54.116Z,1.40
2019-05-06T15:51:25.599Z,2.00
2019-05-06T15:53:55.359Z,1.62
2019-05-06T15:56:25.259Z,1.57
2019-05-06T15:58:54.849Z,1.70
2019-05-06T16:01:24.615Z,2.00
2019-05-06T16:03:54.496Z,1.90
2019-05-06T16:06:24.385Z,1.70
2019-05-06T16:08:54.054Z,1.72
2019-05-06T16:11:23.940Z,2.08
2019-05-06T16:13:54.853Z,1.80
2019-05-06T16:16:24.764Z,2.12
2019-05-06T16:18:54.384Z,2.17
2019-05-06T16:21:24.076Z,2.58
2019-05-06T16:23:55.592Z,3.08
2019-05-06T16:26:25.419Z,2.70
2019-05-06T16:28:55.315Z,2.40
2019-05-06T16:31:25.228Z,2.40
2019-05-06T16:33:55.204Z,2.60
2019-05-06T16:36:25.123Z,2.40
2019-05-06T16:38:55.041Z,2.27
2019-05-06T16:41:24.779Z,2.55
2019-05-06T16:43:54.701Z,2.10
2019-05-06T16:46:24.585Z,2.50
2019-05-06T16:48:54.435Z,2.40
2019-05-06T16:51:24.318Z,2.42
2019-05-06T16:53:54.307Z,2.30
2019-05-06T16:56:25.754Z,2.08
2019-05-06T16:58:57.212Z,1.95
2019-05-06T17:01:27.233Z,2.70
2019-05-06T17:03:58.312Z,2.50
2019-05-06T17:06:29.826Z,3.05
2019-05-06T17:09:16.194Z,2.77
2019-05-06T17:11:34.613Z,3.52
2019-05-06T17:14:04.431Z,3.27
2019-05-06T17:16:34.782Z,2.83
2019-05-06T17:19:05.244Z,3.08
2019-05-06T17:21:35.156Z,2.92
2019-05-06T17:24:05.103Z,3.45
2019-05-06T17:26:34.958Z,3.08
2019-05-06T17:29:06.424Z,3.00
2019-05-06T17:31:37.829Z,3.00
2019-05-06T17:34:09.252Z,3.17
2019-05-06T17:36:42.139Z,2.60
2019-05-06T17:39:12.984Z,2.50
2019-05-06T17:41:48.510Z,2.55
2019-05-06T17:44:14.292Z,2.45
2019-05-06T17:46:45.676Z,2.52
2019-05-06T17:49:17.127Z,2.77
2019-05-06T17:51:51.893Z,2.83
2019-05-06T17:54:22.152Z,2.50
2019-05-06T17:56:52.791Z,2.80
2019-05-06T17:59:22.583Z,2.80
2019-05-06T18:01:53.944Z,2.80
2019-05-06T18:04:23.760Z,2.62
2019-05-06T18:06:53.417Z,2.80
2019-05-06T18:09:23.251Z,2.58
2019-05-06T18:11:58.773Z,3.10
2019-05-06T18:14:24.555Z,2.70
2019-05-06T18:16:54.492Z,3.20
2019-05-06T18:19:24.319Z,3.17
2019-05-06T18:21:54.160Z,3.35
2019-05-06T18:24:24.020Z,4.10
2019-05-06T18:26:53.803Z,3.90
2019-05-06T18:29:23.721Z,4.55
2019-05-06T18:31:53.597Z,4.22
2019-05-06T18:34:24.540Z,4.53
2019-05-06T18:36:54.311Z,4.40
2019-05-06T18:39:24.105Z,4.58
2019-05-06T18:41:54.033Z,3.70
2019-05-06T18:44:23.758Z,4.15
2019-05-06T18:46:53.530Z,4.20
2019-05-06T18:49:23.449Z,4.42
2019-05-06T18:51:54.292Z,4.28
2019-05-06T18:54:25.735Z,3.95
2019-05-06T18:56:55.741Z,3.95
2019-05-06T18:59:25.648Z,4.20
2019-05-06T19:01:55.500Z,4.35
2019-05-06T19:04:26.835Z,4.78
2019-05-06T19:07:09.406Z,4.95
2019-05-06T19:09:32.614Z,4.55
2019-05-06T19:12:03.534Z,5.87
2019-05-06T19:14:34.919Z,5.70
2019-05-06T19:17:04.805Z,6.72
2019-05-06T19:19:35.038Z,6.60
2019-05-06T19:22:05.144Z,7.50
2019-05-06T19:24:34.887Z,7.55
2019-05-06T19:27:04.834Z,6.95
2019-05-06T19:29:34.732Z,7.22
2019-05-06T19:32:04.660Z,8.58
2019-05-06T19:34:35.359Z,7.55
2019-05-06T19:37:05.344Z,8.90
2019-05-06T19:39:36.218Z,8.10
2019-05-06T19:42:06.195Z,8.55
2019-05-06T19:44:36.108Z,8.53
2019-05-06T19:47:05.986Z,7.97
2019-05-06T19:49:35.771Z,8.30
2019-05-06T19:52:05.696Z,7.97
2019-05-06T19:54:35.598Z,8.10
2019-05-06T19:57:05.431Z,7.83
2019-05-06T19:59:35.357Z,8.05
2019-05-06T20:02:05.525Z,8.18
2019-05-06T20:04:36.667Z,9.43
2019-05-06T20:07:09.175Z,15.00
2019-05-06T20:09:45.216Z,20.55
2019-05-06T20:12:16.703Z,17.48
2019-05-06T20:14:46.616Z,17.00
2019-05-06T20:17:16.391Z,15.28
2019-05-06T20:19:46.280Z,16.95
2019-05-06T20:22:16.003Z,18.65
2019-05-06T20:24:45.967Z,19.77
2019-05-06T20:27:15.791Z,21.30
2019-05-06T20:29:45.581Z,25.02
2019-05-06T20:32:15.430Z,23.85
2019-05-06T20:34:45.244Z,22.58
2019-05-06T20:37:15.043Z,21.05
2019-05-06T20:39:44.935Z,16.55
2019-05-06T20:42:14.720Z,15.15
2019-05-06T20:44:44.534Z,13.98
2019-05-06T20:47:15.481Z,12.58
2019-05-06T20:49:45.215Z,12.90
2019-05-06T20:52:15.081Z,11.78
2019-05-06T20:54:44.894Z,12.13
2019-05-06T20:57:14.538Z,11.53
2019-05-06T20:59:44.308Z,13.65
2019-05-06T21:02:14.017Z,22.25
2019-05-06T21:04:43.759Z,17.45
2019-05-06T21:07:13.514Z,13.25
2019-05-06T21:09:43.407Z,13.05
2019-05-06T21:12:13.219Z,11.88
2019-05-06T21:14:43.309Z,10.03
2019-05-06T21:17:13.247Z,8.90
2019-05-06T21:19:43.021Z,8.90
2019-05-06T21:22:13.360Z,8.48
2019-05-06T21:24:44.372Z,7.37
2019-05-06T21:27:14.087Z,7.60
2019-05-06T21:29:44.013Z,7.08
2019-05-06T21:32:13.827Z,6.80
2019-05-06T21:34:43.598Z,5.95
2019-05-06T21:37:13.429Z,6.28
2019-05-06T21:39:43.277Z,6.62
2019-05-06T21:42:14.804Z,6.23
2019-05-06T21:44:45.167Z,5.60
2019-05-06T21:47:14.983Z,5.22
2019-05-06T21:49:44.738Z,6.37
2019-05-06T21:52:14.523Z,5.83
2019-05-06T21:54:44.337Z,6.17
2019-05-06T21:57:13.998Z,6.50
2019-05-06T21:59:43.767Z,10.82
2019-05-06T22:02:15.323Z,13.20
2019-05-06T22:04:45.132Z,15.72
2019-05-06T22:07:15.054Z,14.25
2019-05-06T22:09:44.860Z,12.23
2019-05-06T22:12:14.665Z,8.88
2019-05-06T22:14:44.255Z,6.58
2019-05-06T22:17:14.226Z,5.00
2019-05-06T22:19:43.982Z,5.00
2019-05-06T22:22:15.386Z,4.83
2019-05-06T22:24:46.311Z,4.67
2019-05-06T22:27:16.957Z,5.15
2019-05-06T22:29:46.984Z,5.03
2019-05-06T22:32:16.961Z,4.30
2019-05-06T22:34:46.865Z,4.28
2019-05-06T22:37:16.599Z,4.15
2019-05-06T22:39:46.394Z,3.65
2019-05-06T22:42:16.264Z,3.67
2019-05-06T22:44:45.941Z,3.70
2019-05-06T22:47:15.829Z,3.55
2019-05-06T22:49:45.677Z,3.58
2019-05-06T22:52:15.588Z,3.90
2019-05-06T22:54:45.229Z,4.22
2019-05-06T22:57:15.035Z,3.72
2019-05-06T22:59:44.779Z,4.00
2019-05-06T23:02:16.145Z,4.75
2019-05-06T23:04:47.476Z,4.13
2019-05-06T23:07:17.223Z,4.47
2019-05-06T23:09:47.076Z,4.40
2019-05-06T23:12:17.004Z,4.05
2019-05-06T23:14:46.863Z,4.03
2019-05-06T23:17:16.675Z,4.30
2019-05-06T23:19:46.595Z,4.20
2019-05-06T23:22:16.495Z,4.08
2019-05-06T23:24:46.362Z,3.83
2019-05-06T23:27:16.084Z,3.72
2019-05-06T23:29:45.902Z,3.83
2019-05-06T23:32:15.766Z,4.20
2019-05-06T23:34:45.713Z,3.60
2019-05-06T23:37:19.292Z,3.90
2019-05-06T23:39:53.571Z,3.77
2019-05-06T23:42:26.241Z,3.90
2019-05-06T23:44:58.935Z,3.77
2019-05-06T23:47:31.653Z,4.47
2019-05-06T23:50:04.408Z,3.90
2019-05-06T23:52:38.267Z,4.22
2019-05-06T23:55:12.490Z,3.58
